Hlavní strana
METAR-TAF:

METAR-TAF

Letiště :

Natal, Rio Grande do Norte, Brazílie

zeměpisná šířka: 05-46-05S, zeměpisná délka: 035-22-34W, výška: 88 m

Aktuální stav počasí

Zpráva byla vytvořena před 1 hodinou a 30 minutami, v 08:00 UTC
Jihozápadní vítr 3 kt, proměnlivý mezi jižním a západojihozápadním
Teplota 23°C
Vlhkost vzduchu 94%
Tlak 1013 hPa
Viditelnost: 9000 m
Polojasno ve výšce 2300 ft

METAR: SBSG 190800Z 22003KT 190V250 9000 SCT023 23/22 Q1013

Čas: 06:30 (09:30 UTC)

Předpověď počasí

Zpráva byla vytvořena před 7 hodinami a 30 minutami, v 02:00 UTC
Předpověď platná od 19 v 06 UTC do 20 v 06 UTC
Jihojihozápadní vítr 5 kt
Viditelnost 10 km a více
Polojasno ve výšce 1700 ft
Změna
od 19 v 12 UTC do 19 v 13 UTC
Jižní vítr 13 kt
Změna
od 19 v 21 UTC do 19 v 22 UTC
Jižní vítr 5 kt

TAF: SBSG 190200Z 1906/2006 21005KT 9999 SCT017 TN24/1907Z TX31/1914Z BECMG 1912/1913 17013KT BECMG 1921/1922 17005KT RMK PCN

Stav a předpovědi počasí z více než 4 000 letišť (zprávy METAR a TAF).

Červené a žluté tečky na mapě představují dostupné meteorologické stanice.

Když kurzor umístíte na tečku, zobrazí se název stanice.

Pak kliknutím zobrazíte stav a předpověď počasí.

Chcete-li změnit mapu, kliknutím na zelené tlačítko se znaménkem +mapu přiblížíte, kliknutím na zelené tlačítko se znaménkem – mapu oddálíte a kliknutím na zelené šipky přejdete na sousední mapy.


METAR-TAF: